createdAt,value
2023-05-21T00:01:29.900Z,16.45
2023-05-21T00:03:59.984Z,16.30
2023-05-21T00:06:28.438Z,11.95
2023-05-21T00:08:56.778Z,15.02
2023-05-21T00:11:24.918Z,14.27
2023-05-21T00:13:53.097Z,14.25
2023-05-21T00:16:21.371Z,15.75
2023-05-21T00:18:50.965Z,18.60
2023-05-21T00:21:22.734Z,12.63
2023-05-21T00:23:50.972Z,15.93
2023-05-21T00:26:19.150Z,14.60
2023-05-21T00:28:47.298Z,14.82
2023-05-21T00:31:16.072Z,15.52
2023-05-21T00:33:44.583Z,13.27
2023-05-21T00:36:16.565Z,12.95
2023-05-21T00:38:45.782Z,11.80
2023-05-21T00:41:14.328Z,13.00
2023-05-21T00:43:42.614Z,12.88
2023-05-21T00:46:13.537Z,15.10
2023-05-21T00:48:41.836Z,13.40
2023-05-21T00:51:10.444Z,17.65
2023-05-21T00:53:40.935Z,13.38
2023-05-21T00:56:09.445Z,15.43
2023-05-21T00:58:38.571Z,13.95
2023-05-21T01:01:07.148Z,14.15
2023-05-21T01:03:38.561Z,11.88
2023-05-21T01:06:08.778Z,20.15
2023-05-21T01:08:37.676Z,14.57
2023-05-21T01:11:08.664Z,14.45
2023-05-21T01:13:40.862Z,14.25
2023-05-21T01:16:09.819Z,14.10
2023-05-21T01:18:38.669Z,14.75
2023-05-21T01:21:07.676Z,15.10
2023-05-21T01:23:37.384Z,14.68
2023-05-21T01:26:07.405Z,12.07
2023-05-21T01:28:35.707Z,15.57
2023-05-21T01:31:12.704Z,15.93
2023-05-21T01:33:48.620Z,15.40
2023-05-21T01:36:24.293Z,11.10
2023-05-21T01:39:02.048Z,15.18
2023-05-21T01:41:34.364Z,12.85
2023-05-21T01:44:04.641Z,12.25
2023-05-21T01:46:36.104Z,12.52
2023-05-21T01:49:06.214Z,15.20
2023-05-21T01:51:35.278Z,15.18
2023-05-21T01:54:05.201Z,12.57
2023-05-21T01:56:34.084Z,13.30
2023-05-21T01:59:02.274Z,15.60
2023-05-21T02:01:30.668Z,12.93
2023-05-21T02:03:59.248Z,13.07
2023-05-21T02:06:27.613Z,13.20
2023-05-21T02:08:55.808Z,11.95
2023-05-21T02:11:26.205Z,11.27
2023-05-21T02:13:54.577Z,11.25
2023-05-21T02:16:22.894Z,13.52
2023-05-21T02:18:53.824Z,13.32
2023-05-21T02:21:22.153Z,14.32
2023-05-21T02:23:50.368Z,14.70
2023-05-21T02:26:18.971Z,14.40
2023-05-21T02:28:48.510Z,10.27
2023-05-21T02:31:16.743Z,10.55
2023-05-21T02:33:45.065Z,11.73
2023-05-21T02:36:15.382Z,11.63
2023-05-21T02:38:43.851Z,12.70
2023-05-21T02:41:12.438Z,13.02
2023-05-21T02:43:40.963Z,11.07
2023-05-21T02:46:10.558Z,9.85
2023-05-21T02:48:38.730Z,15.70
2023-05-21T02:51:07.046Z,12.02
2023-05-21T02:53:35.209Z,16.17
2023-05-21T02:56:03.381Z,10.95
2023-05-21T02:58:32.013Z,13.20
2023-05-21T03:01:00.331Z,12.75
2023-05-21T03:03:30.156Z,11.63
2023-05-21T03:05:58.707Z,11.35
2023-05-21T03:08:27.082Z,12.13
2023-05-21T03:10:55.265Z,11.98
2023-05-21T03:13:23.526Z,12.32
2023-05-21T03:15:56.171Z,12.63
2023-05-21T03:18:24.394Z,11.50
2023-05-21T03:20:53.965Z,13.57
2023-05-21T03:23:23.366Z,11.10
2023-05-21T03:25:51.924Z,17.08
2023-05-21T03:28:20.099Z,7.22
2023-05-21T03:30:49.695Z,8.85
2023-05-21T03:33:18.572Z,10.55
2023-05-21T03:35:46.754Z,8.60
2023-05-21T03:38:16.287Z,10.50
2023-05-21T03:40:44.603Z,12.02
2023-05-21T03:43:13.120Z,9.75
2023-05-21T03:45:43.550Z,10.05
2023-05-21T03:48:12.567Z,9.05
2023-05-21T03:50:41.507Z,10.57
2023-05-21T03:53:10.896Z,11.27
2023-05-21T03:55:40.465Z,12.07
2023-05-21T03:58:09.591Z,9.52
2023-05-21T04:00:38.103Z,9.73
2023-05-21T04:03:07.201Z,9.30
2023-05-21T04:05:35.744Z,9.00
2023-05-21T04:08:04.065Z,11.82
2023-05-21T04:10:32.204Z,10.68
2023-05-21T04:13:02.002Z,8.60
2023-05-21T04:15:30.216Z,11.23
2023-05-21T04:17:58.612Z,9.10
2023-05-21T04:20:26.856Z,7.28
2023-05-21T04:22:55.051Z,8.85
2023-05-21T04:25:23.755Z,9.77
2023-05-21T04:27:54.677Z,9.80
2023-05-21T04:30:24.420Z,10.18
2023-05-21T04:32:52.822Z,9.65
2023-05-21T04:35:21.129Z,7.28
2023-05-21T04:37:49.269Z,9.18
2023-05-21T04:40:18.458Z,6.82
2023-05-21T04:42:48.434Z,10.98
2023-05-21T04:45:17.691Z,15.15
2023-05-21T04:47:47.956Z,9.05
2023-05-21T04:50:16.240Z,10.57
2023-05-21T04:52:45.649Z,12.32
2023-05-21T04:55:13.822Z,8.18
2023-05-21T04:57:41.971Z,11.15
2023-05-21T05:00:10.995Z,7.75
2023-05-21T05:02:39.197Z,10.48
2023-05-21T05:05:09.622Z,7.70
2023-05-21T05:07:37.988Z,7.28
2023-05-21T05:10:07.281Z,7.78
2023-05-21T05:12:35.437Z,6.75
2023-05-21T05:15:03.678Z,10.82
2023-05-21T05:17:31.927Z,6.30
2023-05-21T05:20:00.127Z,6.80
2023-05-21T05:22:29.706Z,10.38
2023-05-21T05:24:57.892Z,8.68
2023-05-21T05:27:26.265Z,8.23
2023-05-21T05:29:54.493Z,7.38
2023-05-21T05:32:22.709Z,5.65
2023-05-21T05:34:50.901Z,7.72
2023-05-21T05:37:19.071Z,4.72
2023-05-21T05:39:48.624Z,8.18
2023-05-21T05:42:16.831Z,4.72
2023-05-21T05:44:45.002Z,6.55
2023-05-21T05:47:13.186Z,7.03
2023-05-21T05:49:41.720Z,8.20
2023-05-21T05:52:10.007Z,6.45
2023-05-21T05:54:38.180Z,5.00
2023-05-21T05:57:07.841Z,12.88
2023-05-21T05:59:36.818Z,9.30
2023-05-21T06:02:05.193Z,7.35
2023-05-21T06:04:33.416Z,8.18
2023-05-21T06:07:01.615Z,7.38
2023-05-21T06:09:29.797Z,5.65
2023-05-21T06:11:57.963Z,6.43
2023-05-21T06:14:27.527Z,5.35
2023-05-21T06:16:55.713Z,6.38
2023-05-21T06:19:23.968Z,7.45
2023-05-21T06:21:52.147Z,7.63
2023-05-21T06:24:20.288Z,9.65
2023-05-21T06:26:48.526Z,4.57
2023-05-21T06:29:17.120Z,7.05
2023-05-21T06:31:46.665Z,6.10
2023-05-21T06:34:14.839Z,6.68
2023-05-21T06:36:42.981Z,5.38
2023-05-21T06:39:11.168Z,7.85
2023-05-21T06:41:39.294Z,5.57
2023-05-21T06:44:07.467Z,6.78
2023-05-21T06:46:35.997Z,5.22
2023-05-21T06:49:07.149Z,6.28
2023-05-21T06:51:35.410Z,4.50
2023-05-21T06:54:03.580Z,12.57
2023-05-21T06:56:31.787Z,9.50
2023-05-21T06:59:00.072Z,6.65
2023-05-21T07:01:28.499Z,6.78
2023-05-21T07:03:56.723Z,7.43
2023-05-21T07:06:26.326Z,5.00
2023-05-21T07:08:54.490Z,4.88
2023-05-21T07:11:22.665Z,4.53
2023-05-21T07:13:51.281Z,6.15
2023-05-21T07:16:19.510Z,4.60
2023-05-21T07:18:47.790Z,7.93
2023-05-21T07:21:16.038Z,6.60
2023-05-21T07:23:45.638Z,7.00
2023-05-21T07:26:14.029Z,8.88
2023-05-21T07:28:42.224Z,5.97
2023-05-21T07:31:12.256Z,4.68
2023-05-21T07:33:40.922Z,6.78
2023-05-21T07:36:09.348Z,4.00
2023-05-21T07:38:38.023Z,4.75
2023-05-21T07:41:07.595Z,4.85
2023-05-21T07:43:35.965Z,6.10
2023-05-21T07:46:04.123Z,4.93
2023-05-21T07:48:34.703Z,6.88
2023-05-21T07:51:05.004Z,4.63
2023-05-21T07:53:33.555Z,10.45
2023-05-21T07:56:01.850Z,5.47
2023-05-21T07:58:31.465Z,4.43
2023-05-21T08:00:59.673Z,5.18
2023-05-21T08:03:30.921Z,3.75
2023-05-21T08:05:59.342Z,7.97
2023-05-21T08:08:27.610Z,4.70
2023-05-21T08:10:56.203Z,5.03
2023-05-21T08:13:24.393Z,4.45
2023-05-21T08:15:54.137Z,5.43
2023-05-21T08:18:23.797Z,7.82
2023-05-21T08:20:52.172Z,3.80
2023-05-21T08:23:20.370Z,4.38
2023-05-21T08:25:48.674Z,4.57
2023-05-21T08:28:16.912Z,4.32
2023-05-21T08:30:45.222Z,3.47
2023-05-21T08:33:15.107Z,6.78
2023-05-21T08:35:43.448Z,4.15
2023-05-21T08:38:11.872Z,6.25
2023-05-21T08:40:41.578Z,4.80
2023-05-21T08:43:13.902Z,5.13
2023-05-21T08:45:45.822Z,4.47
2023-05-21T08:48:17.657Z,2.50
2023-05-21T08:50:48.380Z,3.88
2023-05-21T08:53:27.205Z,4.40
2023-05-21T08:55:57.568Z,5.95
2023-05-21T08:58:26.113Z,3.63
2023-05-21T09:00:56.124Z,12.98
2023-05-21T09:03:26.136Z,2.30
2023-05-21T09:05:56.260Z,5.43
2023-05-21T09:08:31.978Z,6.18
2023-05-21T09:11:00.168Z,3.67
2023-05-21T09:13:29.450Z,2.80
2023-05-21T09:15:58.014Z,4.15
2023-05-21T09:18:28.119Z,2.78
2023-05-21T09:20:56.610Z,3.90
2023-05-21T09:23:24.877Z,5.28
2023-05-21T09:25:53.351Z,4.22
2023-05-21T09:28:21.599Z,4.85
2023-05-21T09:30:54.162Z,4.68
2023-05-21T09:33:30.745Z,4.40
2023-05-21T09:35:59.148Z,2.83
2023-05-21T09:38:27.423Z,4.15
2023-05-21T09:40:57.736Z,3.53
2023-05-21T09:43:26.974Z,7.00
2023-05-21T09:45:57.332Z,3.97
2023-05-21T09:48:39.619Z,14.38
2023-05-21T09:51:13.378Z,4.07
2023-05-21T09:53:46.006Z,3.40
2023-05-21T09:56:14.296Z,3.10
2023-05-21T09:58:42.595Z,6.80
2023-05-21T10:01:12.313Z,3.22
2023-05-21T10:03:43.002Z,5.13
2023-05-21T10:06:12.465Z,6.65
2023-05-21T10:08:45.524Z,3.70
2023-05-21T10:11:14.429Z,3.88
2023-05-21T10:13:46.128Z,5.28
2023-05-21T10:16:14.687Z,12.25
2023-05-21T10:18:46.878Z,6.05
2023-05-21T10:21:15.447Z,10.48
2023-05-21T10:23:46.200Z,7.53
2023-05-21T10:26:15.381Z,8.98
2023-05-21T10:28:44.377Z,2.55
2023-05-21T10:31:13.289Z,3.90
2023-05-21T10:33:44.409Z,4.80
2023-05-21T10:36:13.087Z,6.30
2023-05-21T10:38:44.084Z,2.55
2023-05-21T10:41:13.599Z,3.22
2023-05-21T10:43:53.013Z,6.93
2023-05-21T10:46:43.244Z,4.35
2023-05-21T10:49:28.214Z,3.97
2023-05-21T10:52:04.769Z,3.00
2023-05-21T10:55:01.902Z,5.10
2023-05-21T10:57:53.236Z,6.10
2023-05-21T11:00:21.862Z,5.70
2023-05-21T11:02:51.974Z,5.38
2023-05-21T11:05:40.183Z,3.33
2023-05-21T11:08:22.107Z,5.40
2023-05-21T11:10:54.004Z,14.90
2023-05-21T11:13:23.627Z,5.32
2023-05-21T11:16:15.739Z,3.92
2023-05-21T11:19:02.889Z,4.68
2023-05-21T11:21:36.212Z,4.47
2023-05-21T11:24:08.418Z,2.63
2023-05-21T11:27:04.969Z,4.15
2023-05-21T11:29:40.533Z,7.05
2023-05-21T11:32:10.391Z,3.17
2023-05-21T11:34:43.570Z,3.65
2023-05-21T11:37:30.411Z,9.75
2023-05-21T11:40:10.778Z,3.63
2023-05-21T11:42:42.509Z,4.90
2023-05-21T11:45:11.789Z,4.22
2023-05-21T11:47:41.830Z,4.82
2023-05-21T11:50:14.553Z,5.32
2023-05-21T11:52:45.262Z,5.88
2023-05-21T11:55:15.540Z,3.78
2023-05-21T11:57:45.469Z,3.97
2023-05-21T12:00:17.827Z,11.10
2023-05-21T12:02:48.829Z,4.43
2023-05-21T12:05:17.253Z,4.32
2023-05-21T12:07:50.634Z,3.42
2023-05-21T12:10:22.839Z,4.63
2023-05-21T12:12:56.445Z,4.53
2023-05-21T12:15:26.449Z,2.97
2023-05-21T12:17:55.533Z,5.45
2023-05-21T12:20:23.937Z,6.35
2023-05-21T12:22:53.533Z,3.78
2023-05-21T12:25:22.277Z,5.22
2023-05-21T12:27:52.826Z,4.53
2023-05-21T12:30:22.141Z,4.07
2023-05-21T12:32:50.601Z,8.48
2023-05-21T12:35:25.110Z,4.65
2023-05-21T12:37:54.852Z,4.07
2023-05-21T12:40:23.134Z,4.10
2023-05-21T12:42:52.175Z,4.95
2023-05-21T12:45:22.788Z,3.42
2023-05-21T12:47:56.162Z,2.63
2023-05-21T12:50:24.825Z,6.05
2023-05-21T12:52:57.149Z,10.35
2023-05-21T12:55:26.660Z,2.42
2023-05-21T12:58:05.150Z,3.60
2023-05-21T13:00:34.116Z,2.78
2023-05-21T13:03:04.584Z,4.95
2023-05-21T13:05:33.181Z,5.43
2023-05-21T13:08:02.942Z,4.88
2023-05-21T13:10:31.274Z,4.00
2023-05-21T13:12:59.445Z,6.93
2023-05-21T13:15:27.604Z,4.40
2023-05-21T13:17:57.205Z,3.92
2023-05-21T13:20:27.611Z,2.85
2023-05-21T13:22:56.210Z,9.70
2023-05-21T13:25:29.061Z,4.65
2023-05-21T13:27:58.074Z,2.58
2023-05-21T13:30:26.524Z,4.07
2023-05-21T13:32:55.010Z,3.08
2023-05-21T13:35:23.452Z,3.05
2023-05-21T13:37:51.933Z,6.10
2023-05-21T13:40:20.228Z,2.45
2023-05-21T13:42:50.630Z,5.43
2023-05-21T13:45:20.902Z,5.20
2023-05-21T13:47:49.865Z,5.25
2023-05-21T13:50:18.489Z,3.30
2023-05-21T13:52:47.293Z,3.30
2023-05-21T13:55:16.876Z,3.90
2023-05-21T13:57:45.996Z,2.78
2023-05-21T14:00:16.431Z,2.75
2023-05-21T14:02:45.007Z,4.32
2023-05-21T14:05:14.250Z,3.00
2023-05-21T14:07:42.791Z,2.10
2023-05-21T14:10:11.737Z,5.32
2023-05-21T14:12:40.743Z,2.30
2023-05-21T14:15:10.012Z,3.35
2023-05-21T14:17:40.620Z,3.05
2023-05-21T14:20:10.446Z,15.18
2023-05-21T14:22:39.343Z,3.03
2023-05-21T14:25:08.290Z,7.53
2023-05-21T14:27:37.965Z,2.53
2023-05-21T14:30:07.226Z,6.63
2023-05-21T14:32:35.442Z,11.65
2023-05-21T14:35:06.065Z,4.90
2023-05-21T14:37:34.286Z,5.20
2023-05-21T14:40:02.533Z,4.05
2023-05-21T14:42:30.922Z,4.43
2023-05-21T14:45:10.864Z,4.30
2023-05-21T14:47:47.653Z,3.05
2023-05-21T14:50:19.066Z,4.32
2023-05-21T14:52:47.430Z,4.70
2023-05-21T14:55:16.881Z,3.95
2023-05-21T14:57:45.402Z,7.65
2023-05-21T15:00:14.598Z,2.95
2023-05-21T15:02:43.083Z,8.18
2023-05-21T15:05:11.512Z,2.67
2023-05-21T15:07:41.112Z,4.05
2023-05-21T15:10:10.469Z,5.85
2023-05-21T15:12:38.680Z,2.10
2023-05-21T15:15:08.165Z,2.75
2023-05-21T15:17:36.770Z,4.90
2023-05-21T15:20:05.488Z,4.25
2023-05-21T15:22:33.718Z,2.53
2023-05-21T15:25:03.920Z,3.38
2023-05-21T15:27:32.143Z,3.70
2023-05-21T15:30:00.433Z,5.07
2023-05-21T15:32:28.803Z,2.42
2023-05-21T15:34:57.100Z,3.90
2023-05-21T15:37:25.437Z,2.67
2023-05-21T15:39:54.071Z,3.55
2023-05-21T15:42:23.681Z,3.35
2023-05-21T15:44:51.897Z,3.13
2023-05-21T15:47:20.211Z,6.00
2023-05-21T15:49:48.393Z,2.40
2023-05-21T15:52:17.005Z,3.78
2023-05-21T15:54:45.194Z,2.25
2023-05-21T15:57:13.704Z,2.92
2023-05-21T15:59:43.243Z,5.35
2023-05-21T16:02:11.411Z,4.70
2023-05-21T16:04:39.605Z,2.75
2023-05-21T16:07:07.821Z,2.13
2023-05-21T16:09:37.694Z,2.95
2023-05-21T16:12:06.451Z,3.17
2023-05-21T16:14:34.693Z,5.10
2023-05-21T16:17:04.382Z,6.18
2023-05-21T16:19:32.738Z,5.75
2023-05-21T16:22:01.947Z,4.60
2023-05-21T16:24:30.266Z,3.35
2023-05-21T16:26:58.481Z,3.58
2023-05-21T16:29:26.674Z,2.70
2023-05-21T16:31:54.865Z,4.55
2023-05-21T16:34:24.446Z,3.08
2023-05-21T16:36:52.862Z,3.10
2023-05-21T16:39:21.083Z,3.90
2023-05-21T16:41:49.435Z,2.30
2023-05-21T16:44:17.701Z,2.30
2023-05-21T16:46:45.856Z,5.35
2023-05-21T16:49:13.998Z,5.57
2023-05-21T16:51:43.553Z,4.82
2023-05-21T16:54:11.984Z,5.70
2023-05-21T16:56:40.164Z,5.68
2023-05-21T16:59:08.368Z,2.13
2023-05-21T17:01:36.614Z,5.50
2023-05-21T17:04:04.927Z,4.35
2023-05-21T17:06:33.886Z,3.05
2023-05-21T17:09:03.894Z,2.33
2023-05-21T17:11:32.312Z,4.60
2023-05-21T17:14:00.603Z,2.35
2023-05-21T17:16:28.855Z,4.03
2023-05-21T17:18:57.080Z,3.03
2023-05-21T17:21:26.482Z,3.35
2023-05-21T17:23:54.690Z,3.10
2023-05-21T17:26:24.234Z,3.15
2023-05-21T17:28:52.375Z,4.05
2023-05-21T17:31:21.930Z,6.60
2023-05-21T17:33:50.192Z,3.13
2023-05-21T17:36:18.461Z,4.50
2023-05-21T17:38:46.688Z,5.65
2023-05-21T17:41:18.348Z,14.52
2023-05-21T17:43:47.919Z,5.93
2023-05-21T17:46:17.932Z,3.15
2023-05-21T17:48:46.395Z,6.18
2023-05-21T17:51:14.623Z,2.47
2023-05-21T17:53:42.952Z,4.10
2023-05-21T17:56:11.548Z,2.67
2023-05-21T17:58:39.773Z,4.35
2023-05-21T18:01:09.375Z,4.18
2023-05-21T18:03:37.657Z,4.60
2023-05-21T18:06:08.181Z,3.20
2023-05-21T18:08:37.619Z,8.90
2023-05-21T18:11:05.917Z,4.25
2023-05-21T18:13:34.067Z,5.38
2023-05-21T18:16:02.278Z,7.25
2023-05-21T18:18:31.975Z,9.10
2023-05-21T18:21:00.280Z,6.38
2023-05-21T18:23:30.542Z,8.68
2023-05-21T18:25:58.743Z,11.10
2023-05-21T18:28:27.586Z,8.10
2023-05-21T18:30:57.056Z,7.28
2023-05-21T18:33:25.245Z,6.03
2023-05-21T18:35:54.958Z,9.18
2023-05-21T18:38:23.357Z,10.35
2023-05-21T18:40:52.102Z,8.50
2023-05-21T18:43:20.319Z,20.38
2023-05-21T18:45:48.591Z,7.10
2023-05-21T18:48:16.839Z,13.23
2023-05-21T18:50:45.050Z,11.50
2023-05-21T18:53:14.626Z,9.95
2023-05-21T18:55:42.965Z,5.78
2023-05-21T18:58:11.307Z,8.30
2023-05-21T19:00:40.213Z,12.07
2023-05-21T19:03:08.710Z,8.85
2023-05-21T19:05:36.944Z,11.10
2023-05-21T19:08:05.404Z,6.22
2023-05-21T19:10:35.343Z,7.97
2023-05-21T19:13:06.134Z,8.80
2023-05-21T19:15:34.572Z,7.10
2023-05-21T19:18:03.654Z,7.65
2023-05-21T19:20:31.937Z,8.80
2023-05-21T19:23:00.228Z,11.00
2023-05-21T19:25:28.954Z,6.97
2023-05-21T19:27:58.628Z,7.65
2023-05-21T19:30:26.868Z,7.88
2023-05-21T19:32:55.094Z,12.00
2023-05-21T19:35:23.458Z,12.02
2023-05-21T19:37:51.664Z,8.18
2023-05-21T19:40:22.596Z,9.52
2023-05-21T19:42:50.796Z,10.30
2023-05-21T19:45:21.491Z,7.30
2023-05-21T19:47:50.005Z,8.93
2023-05-21T19:50:18.200Z,12.18
2023-05-21T19:52:46.418Z,8.27
2023-05-21T19:55:20.030Z,10.13
2023-05-21T19:57:49.173Z,8.40
2023-05-21T20:00:19.561Z,13.68
2023-05-21T20:02:48.189Z,9.10
2023-05-21T20:05:16.466Z,7.68
2023-05-21T20:07:45.014Z,9.15
2023-05-21T20:10:13.398Z,8.00
2023-05-21T20:12:41.601Z,9.20
2023-05-21T20:15:13.213Z,8.52
2023-05-21T20:17:44.243Z,5.80
2023-05-21T20:20:13.865Z,9.43
2023-05-21T20:22:42.257Z,9.52
2023-05-21T20:25:11.055Z,8.25
2023-05-21T20:27:40.107Z,10.98
2023-05-21T20:30:09.587Z,7.97
2023-05-21T20:32:38.109Z,9.63
2023-05-21T20:35:10.355Z,9.70
2023-05-21T20:37:38.764Z,9.07
2023-05-21T20:40:09.515Z,9.73
2023-05-21T20:42:38.064Z,8.63
2023-05-21T20:45:07.193Z,14.13
2023-05-21T20:47:36.275Z,13.88
2023-05-21T20:50:05.220Z,13.23
2023-05-21T20:52:34.818Z,10.40
2023-05-21T20:55:04.620Z,18.80
2023-05-21T20:57:32.836Z,10.23
2023-05-21T21:00:01.394Z,7.65
2023-05-21T21:02:29.672Z,9.35
2023-05-21T21:04:58.215Z,10.88
2023-05-21T21:07:26.410Z,13.63
2023-05-21T21:09:55.991Z,13.75
2023-05-21T21:12:26.504Z,11.43
2023-05-21T21:14:55.572Z,9.35
2023-05-21T21:17:24.160Z,14.90
2023-05-21T21:19:52.359Z,13.52
2023-05-21T21:22:21.089Z,11.38
2023-05-21T21:24:49.602Z,11.75
2023-05-21T21:27:19.267Z,9.73
2023-05-21T21:29:47.486Z,9.32
2023-05-21T21:32:15.739Z,10.35
2023-05-21T21:34:43.978Z,11.68
2023-05-21T21:37:13.339Z,7.78
2023-05-21T21:39:42.199Z,6.93
2023-05-21T21:42:10.505Z,12.68
2023-05-21T21:44:40.317Z,11.35
2023-05-21T21:47:08.815Z,7.72
2023-05-21T21:49:37.017Z,9.13
2023-05-21T21:52:07.127Z,7.95
2023-05-21T21:54:35.586Z,8.25
2023-05-21T21:57:03.777Z,13.73
2023-05-21T21:59:32.125Z,7.60
2023-05-21T22:02:01.905Z,9.43
2023-05-21T22:04:30.141Z,7.32
2023-05-21T22:06:58.632Z,7.93
2023-05-21T22:09:26.836Z,6.53
2023-05-21T22:11:56.105Z,5.88
2023-05-21T22:14:24.273Z,7.75
2023-05-21T22:16:53.475Z,11.35
2023-05-21T22:19:24.169Z,7.15
2023-05-21T22:21:54.052Z,8.02
2023-05-21T22:24:31.900Z,8.23
2023-05-21T22:27:01.378Z,12.30
2023-05-21T22:29:29.563Z,7.65
2023-05-21T22:31:57.839Z,11.80
2023-05-21T22:34:27.386Z,9.23
2023-05-21T22:36:55.562Z,7.82
2023-05-21T22:39:23.812Z,11.10
2023-05-21T22:41:52.138Z,11.25
2023-05-21T22:44:20.731Z,12.40
2023-05-21T22:46:49.491Z,8.05
2023-05-21T22:49:17.778Z,9.48
2023-05-21T22:51:47.374Z,8.95
2023-05-21T22:54:15.553Z,9.82
2023-05-21T22:56:44.272Z,9.73
2023-05-21T22:59:12.473Z,10.45
2023-05-21T23:01:40.839Z,8.98
2023-05-21T23:04:09.053Z,10.02
2023-05-21T23:06:37.218Z,8.77
2023-05-21T23:09:06.997Z,8.45
2023-05-21T23:11:35.269Z,8.45
2023-05-21T23:14:03.461Z,8.13
2023-05-21T23:16:32.273Z,7.93
2023-05-21T23:19:00.611Z,10.13
2023-05-21T23:21:29.179Z,10.27
2023-05-21T23:23:57.358Z,9.48
2023-05-21T23:26:26.963Z,9.45
2023-05-21T23:28:55.118Z,9.52
2023-05-21T23:31:23.415Z,10.77
2023-05-21T23:33:51.972Z,7.18
2023-05-21T23:36:20.189Z,11.68
2023-05-21T23:38:48.346Z,10.27
2023-05-21T23:41:16.887Z,8.90
2023-05-21T23:43:46.434Z,14.43
2023-05-21T23:46:14.597Z,11.32
2023-05-21T23:48:42.847Z,11.38
2023-05-21T23:51:11.321Z,9.05
2023-05-21T23:53:39.505Z,12.13
2023-05-21T23:56:08.212Z,9.80
2023-05-21T23:58:36.397Z,10.68
